Time;durP1;ratioP1;P1;durP2;ratioP2;P2;SDS_P1;SDS_P2;PMS_P1;PMS_P2;Temp;Humidity;BMP_temperature;BMP_pressure;BME280_temperature;BME280_humidity;BME280_pressure;Samples;Min_cycle;Max_cycle;Signal;HPM_P1;HPM_P2
2021/03/04 00:00:49;;;;;;;28.07;14.47;;;;;;;0.89;74.79;93617.86;1831259;77;21641;-77
2021/03/04 00:03:17;;;;;;;26.40;13.68;;;;;;;0.83;74.97;93616.48;1792897;78;21186;-76
2021/03/04 00:05:45;;;;;;;21.42;11.22;;;;;;;0.92;74.99;93630.59;1844117;77;21170;-77
2021/03/04 00:08:13;;;;;;;17.87;10.08;;;;;;;0.92;74.35;93618.55;1792061;78;21580;-75
2021/03/04 00:10:41;;;;;;;25.30;14.43;;;;;;;0.79;74.73;93626.29;1820851;78;21180;-78
2021/03/04 00:13:08;;;;;;;29.20;14.85;;;;;;;0.78;74.91;93620.16;1836914;77;21479;-76
2021/03/04 00:15:36;;;;;;;28.90;14.47;;;;;;;0.81;74.41;93630.77;1799748;78;21064;-78
2021/03/04 00:18:04;;;;;;;18.20;10.18;;;;;;;0.74;74.50;93613.89;1844539;77;21168;-77
2021/03/04 00:20:32;;;;;;;26.55;12.30;;;;;;;0.62;74.74;93623.22;1808617;79;21181;-77
2021/03/04 00:23:01;;;;;;;30.35;17.12;;;;;;;0.43;75.83;93596.36;1756832;79;21790;-76
2021/03/04 00:25:32;;;;;;;30.72;16.07;;;;;;;0.41;75.53;93593.77;1763364;80;21654;-77
2021/03/04 00:27:59;;;;;;;28.55;15.98;;;;;;;0.42;75.65;93606.84;1736463;80;21156;-76
2021/03/04 00:30:27;;;;;;;27.02;13.88;;;;;;;0.45;77.41;93604.05;1809635;78;21174;-77
2021/03/04 00:32:56;;;;;;;25.77;12.65;;;;;;;0.67;76.46;93591.67;1754627;81;21131;-76
2021/03/04 00:35:24;;;;;;;29.40;15.38;;;;;;;0.76;76.56;93585.48;1811597;77;21447;-77
2021/03/04 00:37:51;;;;;;;25.20;13.93;;;;;;;0.88;76.20;93579.60;1853217;77;21154;-76
2021/03/04 00:40:20;;;;;;;22.82;13.75;;;;;;;1.03;75.92;93587.56;1791180;78;21135;-77
2021/03/04 00:42:48;;;;;;;26.17;15.00;;;;;;;1.17;75.83;93579.24;1802506;77;21507;-77
2021/03/04 00:45:18;;;;;;;29.87;15.28;;;;;;;1.28;75.42;93575.55;1836942;77;21151;-75
2021/03/04 00:47:47;;;;;;;31.70;16.07;;;;;;;1.33;74.98;93570.78;1848097;77;21365;-77
2021/03/04 00:50:17;;;;;;;28.52;15.60;;;;;;;1.41;75.23;93572.57;1828013;77;21223;-78
2021/03/04 00:52:44;;;;;;;23.85;13.32;;;;;;;1.53;74.96;93569.67;1785595;77;21744;-78
2021/03/04 00:55:13;;;;;;;28.25;15.13;;;;;;;1.58;74.92;93558.73;1804411;78;21167;-75
2021/03/04 00:57:40;;;;;;;27.48;15.50;;;;;;;1.66;75.03;93557.86;1780655;80;21263;-76
2021/03/04 01:00:10;;;;;;;30.90;16.65;;;;;;;1.85;74.53;93546.56;1795369;78;22344;-78
2021/03/04 01:02:38;;;;;;;27.17;14.40;;;;;;;2.00;73.71;93545.10;1785192;78;21180;-77
2021/03/04 01:05:06;;;;;;;25.20;14.00;;;;;;;2.03;73.44;93542.53;1742530;80;21200;-76
2021/03/04 01:07:35;;;;;;;27.55;15.60;;;;;;;2.06;73.51;93541.05;1737183;80;21199;-77
2021/03/04 01:10:08;;;;;;;28.32;15.50;;;;;;;2.14;73.44;93538.26;1746483;80;21263;-78
2021/03/04 01:12:36;;;;;;;21.77;12.60;;;;;;;2.26;73.21;93529.93;1762096;81;21372;-76
2021/03/04 01:15:12;;;;;;;24.92;14.15;;;;;;;2.32;72.58;93525.34;1839267;77;21559;-76
2021/03/04 01:17:40;;;;;;;26.20;14.93;;;;;;;2.36;72.66;93529.46;1794599;78;21132;-78
2021/03/04 01:20:11;;;;;;;26.87;14.75;;;;;;;2.38;72.28;93526.67;1723678;79;21215;-79
2021/03/04 01:22:39;;;;;;;25.65;14.20;;;;;;;2.45;72.35;93526.09;1739841;82;21706;-78
2021/03/04 01:25:07;;;;;;;22.67;12.93;;;;;;;2.53;71.87;93521.14;1739461;82;21643;-79
2021/03/04 01:27:36;;;;;;;28.15;14.75;;;;;;;2.52;71.59;93527.64;1746602;79;21190;-78
2021/03/04 01:30:09;;;;;;;24.75;14.53;;;;;;;2.43;71.47;93518.37;1805965;78;21203;-78
2021/03/04 01:32:37;;;;;;;24.77;14.93;;;;;;;2.38;71.61;93521.86;1759631;79;21193;-79
2021/03/04 01:35:07;;;;;;;30.57;17.77;;;;;;;2.31;71.56;93526.47;1757074;81;21118;-78
2021/03/04 01:37:35;;;;;;;34.00;17.17;;;;;;;2.22;71.29;93514.30;1758577;80;21516;-79
2021/03/04 01:40:06;;;;;;;31.85;16.40;;;;;;;2.06;71.36;93516.34;1758519;80;21611;-78
2021/03/04 01:42:34;;;;;;;23.55;13.72;;;;;;;1.90;71.53;93503.42;1758432;80;21180;-78
2021/03/04 01:45:03;;;;;;;22.90;13.45;;;;;;;1.73;72.74;93504.47;1779524;79;21468;-78
2021/03/04 01:47:31;;;;;;;30.05;15.20;;;;;;;1.62;72.88;93502.02;1779537;79;21122;-77
2021/03/04 01:49:59;;;;;;;34.40;17.95;;;;;;;1.37;72.47;93505.25;1771388;79;22232;-77
2021/03/04 01:52:26;;;;;;;34.95;19.45;;;;;;;1.05;73.11;93490.81;1754954;81;21248;-78
2021/03/04 01:54:55;;;;;;;35.52;18.27;;;;;;;0.78;72.69;93480.95;1755154;80;21177;-77
2021/03/04 01:57:23;;;;;;;32.75;15.93;;;;;;;0.44;73.46;93478.86;1755268;81;21149;-77
2021/03/04 01:59:50;;;;;;;31.10;17.27;;;;;;;0.23;75.87;93460.75;1755172;80;21062;-78
2021/03/04 02:02:17;;;;;;;32.83;17.42;;;;;;;0.21;75.81;93458.39;1755295;81;21451;-77
2021/03/04 02:04:48;;;;;;;29.98;16.17;;;;;;;0.12;75.57;93460.93;1755086;80;21624;-77
2021/03/04 02:07:43;;;;;;;30.20;16.12;;;;;;;0.09;77.52;93454.89;1754781;80;21134;-79
2021/03/04 02:10:24;;;;;;;31.42;16.17;;;;;;;0.13;76.93;93442.43;1773368;80;21185;-77
2021/03/04 02:13:11;;;;;;;29.12;16.42;;;;;;;0.10;76.13;93435.06;1781704;78;21177;-74
2021/03/04 02:15:44;;;;;;;29.00;15.83;;;;;;;0.05;79.75;93427.25;1721216;83;21370;-76
2021/03/04 02:18:14;;;;;;;27.35;15.58;;;;;;;0.36;77.72;93428.91;1797171;79;21127;-76
2021/03/04 02:21:06;;;;;;;27.25;15.93;;;;;;;0.46;77.37;93419.69;1829809;77;21112;-78
2021/03/04 02:24:03;;;;;;;26.85;15.18;;;;;;;0.52;77.36;93418.34;1737375;76;21190;-77
2021/03/04 02:27:06;;;;;;;25.68;14.78;;;;;;;0.64;77.27;93400.19;1806881;78;21077;-78
2021/03/04 02:29:48;;;;;;;28.57;16.00;;;;;;;0.76;77.37;93400.78;1797398;77;21190;-77
2021/03/04 02:32:19;;;;;;;29.55;14.55;;;;;;;0.88;76.22;93393.53;1753656;80;21221;-79
2021/03/04 02:34:55;;;;;;;28.73;14.53;;;;;;;0.94;77.16;93395.41;1783069;80;21164;-78
2021/03/04 02:37:22;;;;;;;31.48;14.73;;;;;;;1.25;76.83;93388.72;1811697;78;21084;-78
2021/03/04 02:39:52;;;;;;;28.23;15.65;;;;;;;1.53;75.79;93386.09;1745065;82;21120;-78
2021/03/04 02:42:22;;;;;;;26.12;14.63;;;;;;;1.69;74.43;93374.34;1763299;81;22198;-78
2021/03/04 02:44:53;;;;;;;27.20;13.93;;;;;;;1.88;74.80;93372.91;1807828;78;21075;-79
2021/03/04 02:47:20;;;;;;;26.10;14.85;;;;;;;2.16;73.70;93368.33;1799264;79;21121;-77
2021/03/04 02:49:48;;;;;;;26.10;14.05;;;;;;;2.41;72.02;93362.28;1773588;79;21649;-79
2021/03/04 02:52:17;;;;;;;27.13;14.18;;;;;;;2.50;71.67;93368.05;1760103;80;21276;-76
2021/03/04 02:54:45;;;;;;;25.68;14.50;;;;;;;2.49;71.90;93360.55;1770898;79;22053;-77
2021/03/04 02:57:13;;;;;;;26.48;13.70;;;;;;;2.55;72.16;93357.04;1740123;81;21110;-77
2021/03/04 02:59:41;;;;;;;22.32;13.95;;;;;;;2.69;71.41;93357.39;1767699;81;21126;-78
2021/03/04 03:02:10;;;;;;;28.67;14.10;;;;;;;2.86;71.20;93349.00;1764424;79;21582;-78
2021/03/04 03:04:39;;;;;;;25.48;14.87;;;;;;;2.94;70.62;93349.94;1758898;81;21194;-77
2021/03/04 03:07:10;;;;;;;23.12;13.43;;;;;;;3.00;69.84;93341.04;1789703;79;21064;-75
2021/03/04 03:09:42;;;;;;;28.38;14.07;;;;;;;3.03;69.55;93343.81;1797532;78;21155;-77
2021/03/04 03:12:12;;;;;;;25.95;14.18;;;;;;;3.00;69.39;93334.33;1809081;78;21074;-77
2021/03/04 03:14:40;;;;;;;27.22;13.75;;;;;;;3.02;69.31;93340.91;1807322;78;21702;-78
2021/03/04 03:17:07;;;;;;;20.75;12.75;;;;;;;3.08;69.34;93344.10;1800722;78;21185;-77
2021/03/04 03:19:37;;;;;;;21.90;12.63;;;;;;;3.14;68.65;93342.14;1794771;78;21482;-77
2021/03/04 03:22:07;;;;;;;22.77;12.65;;;;;;;3.20;69.15;93338.64;1798826;78;21170;-79
2021/03/04 03:24:35;;;;;;;21.80;12.43;;;;;;;3.21;68.82;93329.44;1801297;79;21128;-80
2021/03/04 03:27:02;;;;;;;23.92;13.05;;;;;;;3.20;68.98;93340.52;1796601;79;21195;-79
2021/03/04 03:29:30;;;;;;;24.18;14.03;;;;;;;3.17;68.98;93336.64;1795415;79;21092;-76
2021/03/04 03:31:58;;;;;;;25.32;14.00;;;;;;;3.14;68.55;93328.71;1795931;79;21408;-75
2021/03/04 03:34:25;;;;;;;23.05;13.00;;;;;;;3.16;68.59;93323.78;1794790;79;21171;-77
2021/03/04 03:36:55;;;;;;;25.32;13.85;;;;;;;3.19;68.62;93336.28;1795318;79;21152;-78
2021/03/04 03:39:22;;;;;;;25.12;15.50;;;;;;;3.18;68.55;93325.33;1757794;79;21159;-77
2021/03/04 03:41:49;;;;;;;21.65;13.32;;;;;;;3.15;68.38;93317.39;1773420;78;21506;-75
2021/03/04 03:44:17;;;;;;;24.98;13.95;;;;;;;3.14;68.71;93321.22;1794905;79;21607;-75
2021/03/04 03:46:45;;;;;;;25.80;14.70;;;;;;;3.12;68.54;93315.41;1793503;79;21191;-77
2021/03/04 03:49:15;;;;;;;22.85;13.48;;;;;;;3.12;68.51;93312.17;1779717;80;21598;-77
2021/03/04 03:51:43;;;;;;;26.07;13.48;;;;;;;3.13;68.71;93312.38;1729766;81;21168;-75
2021/03/04 03:54:12;;;;;;;21.85;12.47;;;;;;;3.07;68.80;93299.56;1738553;81;21176;-76
2021/03/04 03:56:40;;;;;;;23.25;14.05;;;;;;;3.06;68.78;93313.56;1763212;80;21344;-80
2021/03/04 03:59:08;;;;;;;26.87;14.28;;;;;;;3.11;68.78;93296.39;1800281;79;21159;-80
2021/03/04 04:01:36;;;;;;;20.68;12.37;;;;;;;3.14;68.61;93303.19;1749191;81;21114;-78
2021/03/04 04:04:05;;;;;;;22.30;12.53;;;;;;;3.16;68.56;93300.94;1728034;81;21168;-76
2021/03/04 04:06:34;;;;;;;22.55;12.63;;;;;;;3.18;68.42;93289.83;1753020;80;21482;-77
2021/03/04 04:09:02;;;;;;;24.35;14.95;;;;;;;3.23;68.43;93290.11;1777852;79;21186;-80
2021/03/04 04:11:30;;;;;;;22.60;12.37;;;;;;;3.23;68.20;93282.05;1787895;79;21149;-79
2021/03/04 04:13:58;;;;;;;23.50;12.25;;;;;;;3.26;68.32;93278.66;1732722;81;21618;-74
2021/03/04 04:16:56;;;;;;;22.10;12.55;;;;;;;3.24;68.09;93272.88;1760691;80;21577;-83
2021/03/04 04:19:24;;;;;;;22.62;13.83;;;;;;;3.30;67.83;93269.54;1752242;81;21132;-78
2021/03/04 04:21:52;;;;;;;20.97;12.18;;;;;;;3.36;67.23;93269.48;1729334;82;21390;-75
2021/03/04 04:24:21;;;;;;;23.42;12.55;;;;;;;3.43;66.74;93268.09;1786703;78;21134;-76
2021/03/04 04:26:48;;;;;;;20.90;12.28;;;;;;;3.47;66.80;93269.70;1751082;81;21071;-77
2021/03/04 04:29:15;;;;;;;22.42;11.60;;;;;;;3.46;66.21;93272.73;1779595;80;21199;-79
2021/03/04 04:31:43;;;;;;;20.10;12.53;;;;;;;3.49;66.14;93261.28;1797928;78;21103;-75
2021/03/04 04:34:11;;;;;;;20.25;11.22;;;;;;;3.49;66.42;93276.84;1738699;81;22059;-77
2021/03/04 04:36:39;;;;;;;21.25;11.93;;;;;;;3.47;65.47;93250.89;1750108;81;21139;-74
2021/03/04 04:39:06;;;;;;;21.42;12.07;;;;;;;3.54;65.58;93269.08;1828294;76;21048;-78
2021/03/04 04:41:34;;;;;;;19.92;11.80;;;;;;;3.57;65.38;93254.36;1803174;77;21173;-74
2021/03/04 04:44:02;;;;;;;20.50;11.50;;;;;;;3.54;65.43;93252.38;1800803;79;21056;-78
2021/03/04 04:46:30;;;;;;;22.10;12.33;;;;;;;3.55;65.17;93243.17;1809170;79;21403;-78
2021/03/04 04:48:58;;;;;;;20.77;12.13;;;;;;;3.57;65.32;93250.33;1816166;79;21139;-81
2021/03/04 04:51:26;;;;;;;20.55;12.18;;;;;;;3.58;65.19;93245.16;1813829;79;21611;-75
2021/03/04 04:53:54;;;;;;;19.55;11.38;;;;;;;3.58;65.31;93239.78;1789133;79;21120;-78
2021/03/04 04:56:21;;;;;;;20.20;11.12;;;;;;;3.59;65.15;93234.61;1809466;78;21567;-78
2021/03/04 04:58:51;;;;;;;19.82;10.05;;;;;;;3.59;64.76;93237.30;1798238;77;21072;-79
2021/03/04 05:01:18;;;;;;;17.55;10.88;;;;;;;3.59;64.70;93241.90;1817769;79;21143;-76
2021/03/04 05:03:46;;;;;;;19.48;11.33;;;;;;;3.58;64.44;93237.66;1817693;79;21595;-79
2021/03/04 05:06:13;;;;;;;19.25;11.65;;;;;;;3.61;64.66;93235.05;1844392;77;21190;-79
2021/03/04 05:08:41;;;;;;;22.27;10.98;;;;;;;3.62;64.30;93225.06;1844351;77;21026;-78
2021/03/04 05:11:09;;;;;;;22.37;11.93;;;;;;;3.63;64.40;93231.41;1843460;77;21642;-76
2021/03/04 05:13:37;;;;;;;22.00;11.53;;;;;;;3.63;64.31;93234.67;1844231;77;21614;-78
2021/03/04 05:16:05;;;;;;;22.40;12.00;;;;;;;3.59;64.46;93221.16;1843598;77;21113;-77
2021/03/04 05:18:32;;;;;;;19.48;11.60;;;;;;;3.58;64.40;93236.31;1844908;77;21116;-77
2021/03/04 05:21:00;;;;;;;18.95;11.40;;;;;;;3.58;64.13;93241.70;1825356;77;21108;-76
2021/03/04 05:23:27;;;;;;;20.75;11.65;;;;;;;3.62;63.75;93225.83;1842093;77;21483;-77
2021/03/04 05:25:55;;;;;;;21.02;12.55;;;;;;;3.69;63.92;93217.70;1845951;77;21614;-78
2021/03/04 05:28:22;;;;;;;19.82;10.93;;;;;;;3.68;63.86;93220.93;1841201;77;21173;-77
2021/03/04 05:30:52;;;;;;;20.85;11.95;;;;;;;3.68;63.58;93222.27;1840574;77;21213;-79
2021/03/04 05:33:20;;;;;;;19.90;11.40;;;;;;;3.74;63.89;93222.78;1841371;77;21574;-79
2021/03/04 05:35:48;;;;;;;23.40;12.60;;;;;;;3.72;64.17;93217.73;1820867;77;21461;-78
2021/03/04 05:38:16;;;;;;;21.42;11.80;;;;;;;3.72;63.73;93219.08;1836229;77;21707;-75
2021/03/04 05:40:43;;;;;;;20.15;11.48;;;;;;;3.77;63.69;93216.13;1775078;80;21148;-76
2021/03/04 05:43:11;;;;;;;20.08;11.60;;;;;;;3.83;63.65;93211.21;1724684;81;21189;-76
2021/03/04 05:45:40;;;;;;;22.02;11.97;;;;;;;3.87;63.81;93216.89;1795957;79;21151;-78
2021/03/04 05:48:09;;;;;;;21.62;11.75;;;;;;;3.91;63.03;93218.27;1810432;78;21353;-77
2021/03/04 05:50:44;;;;;;;19.02;10.95;;;;;;;4.01;62.98;93211.53;1812609;79;21173;-82
2021/03/04 05:53:14;;;;;;;20.57;10.98;;;;;;;4.10;63.05;93207.48;1846292;77;21131;-77
2021/03/04 05:55:45;;;;;;;21.85;11.55;;;;;;;4.28;62.32;93200.25;1841851;77;21725;-76
2021/03/04 05:58:14;;;;;;;23.25;12.10;;;;;;;4.45;61.77;93196.30;1807087;78;21573;-75
2021/03/04 06:00:42;;;;;;;22.70;13.38;;;;;;;4.56;61.18;93210.70;1819819;77;21878;-77
2021/03/04 06:03:11;;;;;;;20.75;11.75;;;;;;;4.68;61.08;93194.91;1844153;77;21172;-79
2021/03/04 06:05:38;;;;;;;19.25;11.63;;;;;;;4.69;61.30;93191.06;1812290;78;21103;-75
2021/03/04 06:08:07;;;;;;;20.08;11.65;;;;;;;4.69;61.15;93197.22;1841346;77;21166;-77
2021/03/04 06:10:35;;;;;;;21.42;12.20;;;;;;;4.73;61.13;93209.39;1812684;79;21187;-75
2021/03/04 06:13:04;;;;;;;22.45;12.07;;;;;;;4.81;60.54;93188.95;1795466;78;21571;-78
2021/03/04 06:15:32;;;;;;;18.40;11.50;;;;;;;4.93;60.71;93191.99;1818456;77;21148;-79
2021/03/04 06:18:00;;;;;;;22.13;12.40;;;;;;;5.00;60.51;93192.09;1778502;80;21162;-81
2021/03/04 06:20:42;;;;;;;18.95;11.83;;;;;;;5.00;59.79;93188.05;1774428;79;21308;-77
2021/03/04 06:23:10;;;;;;;19.90;12.43;;;;;;;5.00;59.48;93187.25;1836265;77;21152;-75
2021/03/04 06:25:38;;;;;;;19.23;11.45;;;;;;;5.06;60.35;93197.92;1826409;78;21177;-74
2021/03/04 06:28:06;;;;;;;17.77;10.38;;;;;;;5.19;59.45;93191.72;1840746;77;21167;-78
2021/03/04 06:30:39;;;;;;;20.50;11.68;;;;;;;5.35;59.29;93185.02;1782450;79;21182;-80
2021/03/04 06:33:11;;;;;;;21.07;12.90;;;;;;;5.46;59.07;93187.06;1834853;76;21138;-79
2021/03/04 06:35:42;;;;;;;20.32;11.50;;;;;;;5.51;58.22;93184.80;1820533;78;21186;-76
2021/03/04 06:38:15;;;;;;;19.32;12.00;;;;;;;5.50;57.89;93169.77;1820427;78;21626;-77
2021/03/04 06:40:43;;;;;;;19.10;11.95;;;;;;;5.44;58.04;93182.02;1796841;79;21238;-78
2021/03/04 06:43:23;;;;;;;18.52;10.90;;;;;;;5.42;58.07;93180.86;1819600;78;21161;-79
2021/03/04 06:45:50;;;;;;;19.40;11.28;;;;;;;5.49;58.16;93182.26;1819762;78;21457;-79
2021/03/04 06:48:24;;;;;;;18.95;12.10;;;;;;;5.51;57.45;93172.66;1806031;78;21131;-76
2021/03/04 06:51:01;;;;;;;18.67;11.60;;;;;;;5.51;56.61;93181.33;1784004;80;21618;-80
2021/03/04 06:53:29;;;;;;;19.95;12.30;;;;;;;5.45;57.32;93176.83;1784837;80;21179;-75
2021/03/04 06:56:04;;;;;;;18.75;11.15;;;;;;;5.47;58.16;93183.98;1789272;79;21131;-81
2021/03/04 06:58:39;;;;;;;16.80;11.30;;;;;;;5.52;57.87;93184.22;1774551;80;21680;-78
2021/03/04 07:01:14;;;;;;;21.77;12.33;;;;;;;5.63;57.87;93176.25;1753025;81;21179;-76
2021/03/04 07:03:52;;;;;;;21.65;11.93;;;;;;;5.72;56.76;93178.10;1789024;79;21357;-76
2021/03/04 07:06:25;;;;;;;17.50;11.22;;;;;;;5.84;55.99;93170.51;1766990;80;21204;-81
2021/03/04 07:08:54;;;;;;;18.77;11.65;;;;;;;5.98;55.98;93175.30;1778026;79;21249;-80
2021/03/04 07:11:25;;;;;;;19.62;10.68;;;;;;;6.17;56.29;93173.52;1755223;81;21187;-76
2021/03/04 07:13:52;;;;;;;17.57;11.33;;;;;;;6.42;53.98;93167.75;1802508;78;21748;-76
2021/03/04 07:16:23;;;;;;;20.50;11.12;;;;;;;6.60;54.78;93163.06;1804651;78;21703;-79
2021/03/04 07:18:57;;;;;;;22.20;12.35;;;;;;;6.70;53.59;93182.62;1821449;78;38245;-77
2021/03/04 07:21:26;;;;;;;21.05;11.53;;;;;;;6.75;53.23;93177.63;1820062;78;21210;-77
2021/03/04 07:23:54;;;;;;;17.20;11.12;;;;;;;6.77;53.10;93165.88;1820098;78;21255;-81
2021/03/04 07:26:22;;;;;;;19.00;11.55;;;;;;;6.78;53.80;93182.88;1820816;78;21163;-77
2021/03/04 07:28:51;;;;;;;18.23;11.30;;;;;;;6.79;52.50;93160.86;1820236;78;21344;-79
2021/03/04 07:31:19;;;;;;;17.75;11.08;;;;;;;6.90;53.27;93173.67;1820611;78;21446;-78
2021/03/04 07:33:48;;;;;;;18.70;12.20;;;;;;;7.07;52.67;93183.82;1820244;78;21684;-79
2021/03/04 07:36:21;;;;;;;18.42;11.03;;;;;;;7.13;52.29;93150.42;1819578;78;21629;-78
2021/03/04 07:38:57;;;;;;;19.95;11.43;;;;;;;7.26;51.90;93157.84;1819891;78;21183;-82
2021/03/04 07:41:39;;;;;;;15.80;11.33;;;;;;;7.33;51.40;93130.60;1819398;78;21625;-82
2021/03/04 07:44:07;;;;;;;16.50;10.65;;;;;;;7.30;51.47;93140.27;1823060;78;21564;-77
2021/03/04 07:46:44;;;;;;;16.20;10.65;;;;;;;7.34;51.07;93147.82;1773639;79;21158;-81
2021/03/04 07:49:12;;;;;;;16.90;10.75;;;;;;;7.38;50.50;93138.37;1802116;78;21178;-78
2021/03/04 07:51:43;;;;;;;18.37;11.00;;;;;;;7.36;50.49;93142.02;1812961;77;21184;-77
2021/03/04 07:54:12;;;;;;;19.20;11.97;;;;;;;7.36;51.24;93144.14;1794014;79;21656;-78
2021/03/04 07:56:40;;;;;;;13.45;9.50;;;;;;;7.38;50.46;93139.72;1814816;79;21181;-79
2021/03/04 07:59:13;;;;;;;21.02;10.23;;;;;;;7.42;50.84;93129.69;1780687;79;21203;-78
2021/03/04 08:01:42;;;;;;;16.20;10.98;;;;;;;7.50;49.40;93131.25;1812424;78;21136;-80
2021/03/04 08:04:23;;;;;;;18.35;10.23;;;;;;;7.53;50.14;93126.44;1790257;78;21209;-79
2021/03/04 08:06:51;;;;;;;16.50;9.70;;;;;;;7.63;49.58;93131.08;1789702;79;21165;-80
2021/03/04 08:09:31;;;;;;;14.30;9.93;;;;;;;7.76;49.54;93124.16;1796088;78;21765;-77
2021/03/04 08:12:14;;;;;;;18.87;10.93;;;;;;;7.98;48.04;93112.78;1777334;79;21164;-74
2021/03/04 08:14:53;;;;;;;16.40;11.18;;;;;;;8.12;46.93;93104.46;1801731;79;21163;-78
2021/03/04 08:17:21;;;;;;;15.03;10.13;;;;;;;8.06;47.60;93112.80;1803379;79;21183;-75
2021/03/04 08:19:49;;;;;;;17.07;10.78;;;;;;;7.93;47.18;93108.32;1807584;79;21360;-79
2021/03/04 08:22:19;;;;;;;16.67;10.70;;;;;;;7.83;48.07;93094.98;1775430;79;21168;-79
2021/03/04 08:24:47;;;;;;;14.75;10.03;;;;;;;7.76;47.28;93086.84;1760961;80;21172;-77
2021/03/04 08:27:15;;;;;;;14.03;10.40;;;;;;;7.71;47.93;93075.03;1716703;83;21360;-74
2021/03/04 08:29:49;;;;;;;23.52;10.78;;;;;;;7.64;47.63;93088.58;1789028;80;21182;-79
2021/03/04 08:32:17;;;;;;;16.77;10.72;;;;;;;7.60;48.30;93089.92;1822615;78;21252;-77
2021/03/04 08:34:45;;;;;;;16.70;10.63;;;;;;;7.59;47.59;93087.00;1731432;82;21189;-79
2021/03/04 08:37:23;;;;;;;14.85;9.60;;;;;;;7.54;48.43;93070.58;1760425;81;21132;-74
2021/03/04 08:40:01;;;;;;;18.10;10.90;;;;;;;7.57;47.54;93056.09;1702964;82;21204;-76
2021/03/04 08:42:29;;;;;;;16.50;10.30;;;;;;;7.58;48.24;93070.58;1791817;78;21155;-77
2021/03/04 08:44:57;;;;;;;15.63;11.00;;;;;;;7.55;48.09;93056.46;1778967;80;21701;-79
2021/03/04 08:47:24;;;;;;;14.85;10.03;;;;;;;7.56;48.10;93067.50;1810688;79;21159;-76
2021/03/04 08:49:57;;;;;;;20.40;10.65;;;;;;;7.68;47.50;93060.36;1778714;78;21184;-79
2021/03/04 08:52:27;;;;;;;17.32;11.55;;;;;;;7.79;47.20;93051.67;1820015;77;21251;-77
2021/03/04 08:54:56;;;;;;;16.70;10.68;;;;;;;7.79;46.21;93050.90;1819352;78;21099;-74
2021/03/04 08:57:26;;;;;;;16.67;11.40;;;;;;;7.85;47.06;93066.16;1778207;80;21380;-81
2021/03/04 09:00:09;;;;;;;16.15;9.75;;;;;;;7.92;47.74;93061.53;1776904;80;21689;-78
2021/03/04 09:02:39;;;;;;;17.25;11.60;;;;;;;8.10;46.47;93055.34;1755032;80;21203;-80
2021/03/04 09:05:08;;;;;;;14.33;9.35;;;;;;;8.34;45.60;93051.05;1764458;79;21156;-79
2021/03/04 09:07:44;;;;;;;16.93;9.80;;;;;;;8.46;44.97;93051.47;1802142;78;21178;-75
2021/03/04 09:10:13;;;;;;;17.90;10.68;;;;;;;8.47;45.15;93065.20;1804501;78;21354;-75
2021/03/04 09:12:44;;;;;;;17.30;10.88;;;;;;;8.35;44.64;93039.05;1804233;79;21152;-76
2021/03/04 09:15:15;;;;;;;16.85;10.93;;;;;;;8.13;46.48;93053.99;1799245;79;21131;-79
2021/03/04 09:17:46;;;;;;;16.27;11.05;;;;;;;7.97;46.35;93050.33;1771396;80;21131;-79
2021/03/04 09:20:15;;;;;;;14.95;10.10;;;;;;;7.89;46.77;93038.52;1784754;79;21167;-78
2021/03/04 09:22:43;;;;;;;14.35;9.90;;;;;;;7.87;46.46;93041.62;1809262;79;21420;-79
2021/03/04 09:25:12;;;;;;;14.38;9.48;;;;;;;7.84;46.38;93025.38;1802364;79;21205;-76
2021/03/04 09:27:40;;;;;;;22.58;11.63;;;;;;;7.76;46.46;93043.55;1800011;78;21240;-79
2021/03/04 09:30:08;;;;;;;16.30;9.83;;;;;;;7.72;47.32;93025.95;1789583;80;21160;-79
2021/03/04 09:32:36;;;;;;;15.40;9.95;;;;;;;7.64;45.69;93044.70;1801494;79;21181;-77
2021/03/04 09:35:15;;;;;;;17.50;10.60;;;;;;;7.61;46.55;93035.99;1825520;78;21586;-75
2021/03/04 09:37:43;;;;;;;20.37;11.95;;;;;;;7.65;45.75;93052.23;1766510;79;21206;-78
2021/03/04 09:40:26;;;;;;;14.53;9.80;;;;;;;7.62;46.59;93017.23;1795383;79;21152;-73
2021/03/04 09:42:54;;;;;;;16.23;10.58;;;;;;;7.66;46.36;93031.55;1770874;80;21649;-76
2021/03/04 09:45:22;;;;;;;14.43;9.43;;;;;;;7.67;46.61;93011.46;1745331;82;21199;-79
2021/03/04 09:47:50;;;;;;;14.05;9.78;;;;;;;7.73;47.21;93008.55;1818705;77;21185;-81
2021/03/04 09:50:26;;;;;;;16.82;10.60;;;;;;;7.77;46.18;93009.90;1821071;77;21172;-81
2021/03/04 09:53:07;;;;;;;15.13;10.10;;;;;;;7.85;46.57;92997.13;1797416;78;21137;-75
2021/03/04 09:55:42;;;;;;;15.75;10.20;;;;;;;7.91;46.20;92992.30;1801432;79;21171;-74
2021/03/04 09:58:15;;;;;;;;;;;;;;;7.93;45.58;92988.61;1804493;79;21175;-79
2021/03/04 10:00:43;;;;;;;16.40;10.30;;;;;;;7.96;45.69;92993.25;1805675;78;21271;-76
2021/03/04 10:03:13;;;;;;;17.60;11.05;;;;;;;7.93;45.94;92975.08;1805421;79;21678;-78
2021/03/04 10:05:46;;;;;;;16.82;10.03;;;;;;;7.90;45.05;92975.08;1807660;79;21190;-77
2021/03/04 10:08:16;;;;;;;15.90;9.98;;;;;;;7.83;45.03;92969.11;1798703;79;21184;-76
2021/03/04 10:10:46;;;;;;;17.85;11.55;;;;;;;7.79;45.89;92947.46;1817679;78;21608;-76
2021/03/04 10:13:15;;;;;;;21.05;10.30;;;;;;;7.75;45.62;92966.99;1790105;79;21336;-79
2021/03/04 10:15:43;;;;;;;19.73;10.70;;;;;;;7.72;45.70;92964.29;1799694;79;21139;-76
2021/03/04 10:18:14;;;;;;;17.87;10.90;;;;;;;7.71;45.87;92957.31;1729094;83;21172;-77
2021/03/04 10:20:46;;;;;;;16.70;10.50;;;;;;;7.69;46.04;92953.65;1782022;80;21160;-79
2021/03/04 10:23:16;;;;;;;18.23;12.20;;;;;;;7.73;46.29;92957.13;1774985;80;21137;-76
2021/03/04 10:25:45;;;;;;;16.37;10.90;;;;;;;7.81;46.11;92943.59;1790576;79;21812;-76
2021/03/04 10:28:13;;;;;;;17.87;11.78;;;;;;;7.90;47.59;92942.04;1799219;79;21141;-78
2021/03/04 10:30:41;;;;;;;22.45;11.93;;;;;;;7.96;46.40;92948.58;1804738;78;21098;-79
2021/03/04 10:33:09;;;;;;;16.02;10.28;;;;;;;7.96;45.63;92934.28;1784073;78;21175;-81
2021/03/04 10:35:36;;;;;;;20.35;12.55;;;;;;;7.99;45.95;92927.50;1802975;78;21041;-79
2021/03/04 10:38:05;;;;;;;16.70;11.20;;;;;;;8.08;47.25;92930.38;1794781;79;21274;-81
2021/03/04 10:40:32;;;;;;;16.95;11.30;;;;;;;8.11;46.42;92930.96;1816479;79;21171;-81
2021/03/04 10:43:01;;;;;;;16.70;10.45;;;;;;;8.12;45.07;92917.60;1816422;78;21171;-75
2021/03/04 10:45:29;;;;;;;19.85;10.80;;;;;;;8.13;45.74;92924.00;1816431;78;21175;-80
2021/03/04 10:47:57;;;;;;;21.60;12.03;;;;;;;8.23;46.35;92953.55;1838271;78;21155;-80
2021/03/04 10:50:25;;;;;;;16.37;10.58;;;;;;;8.25;45.55;92935.76;1820822;77;21352;-79
2021/03/04 10:52:53;;;;;;;18.10;10.50;;;;;;;8.22;44.85;92914.87;1813459;78;21133;-81
2021/03/04 10:55:24;;;;;;;16.17;10.18;;;;;;;8.21;45.93;92919.33;1865923;76;21609;-80
2021/03/04 10:57:52;;;;;;;15.23;11.00;;;;;;;8.16;46.37;92906.98;1845450;77;21616;-77
2021/03/04 11:00:21;;;;;;;21.55;12.20;;;;;;;8.16;45.28;92921.07;1820807;78;21174;-79
2021/03/04 11:02:49;;;;;;;32.75;12.53;;;;;;;8.15;45.46;92899.99;1820335;77;21629;-79
2021/03/04 11:05:17;;;;;;;17.95;10.75;;;;;;;8.13;46.83;92913.75;1862729;76;21171;-76
2021/03/04 11:07:46;;;;;;;17.87;11.25;;;;;;;8.10;45.21;92891.52;1822088;77;21180;-80
2021/03/04 11:10:14;;;;;;;14.75;10.23;;;;;;;8.09;45.61;92885.33;1793064;77;21349;-75
2021/03/04 11:12:44;;;;;;;14.28;10.13;;;;;;;8.12;46.10;92883.17;1852363;77;21166;-78
2021/03/04 11:15:12;;;;;;;19.50;10.45;;;;;;;8.19;44.38;92890.50;1818781;77;21932;-76
2021/03/04 11:17:41;;;;;;;15.50;10.00;;;;;;;8.17;43.80;92896.33;1793180;78;21206;-78
2021/03/04 11:20:10;;;;;;;20.15;11.03;;;;;;;8.06;45.17;92882.05;1816720;78;21178;-77
2021/03/04 11:22:38;;;;;;;15.70;9.58;;;;;;;8.09;44.34;92866.96;1784187;80;21180;-77
2021/03/04 11:25:07;;;;;;;12.70;8.90;;;;;;;8.17;44.25;92845.45;1791402;78;21207;-75
2021/03/04 11:27:36;;;;;;;17.57;9.93;;;;;;;8.22;43.86;92862.64;1784474;80;21162;-76
2021/03/04 11:30:08;;;;;;;15.13;9.63;;;;;;;8.25;44.67;92860.50;1793122;78;21203;-74
2021/03/04 11:32:36;;;;;;;17.48;10.18;;;;;;;8.28;43.59;92863.20;1808175;78;21660;-81
2021/03/04 11:35:06;;;;;;;15.03;10.50;;;;;;;8.30;44.77;92854.67;1844949;77;21179;-79
2021/03/04 11:37:34;;;;;;;19.85;10.65;;;;;;;8.32;44.17;92857.77;1801695;78;21151;-75
2021/03/04 11:40:05;;;;;;;16.45;9.43;;;;;;;8.35;45.11;92856.19;1785393;80;22642;-77